sensor_id;sensor_type;location;lat;lon;timestamp;pressure;altitude;pressure_sealevel;temperature;humidity
74103;BME280;62853;46.166;3.640;2023-05-31T00:01:24;102386.97;;;13.50;100.00
74103;BME280;62853;46.166;3.640;2023-05-31T00:03:50;102386.19;;;13.48;100.00
74103;BME280;62853;46.166;3.640;2023-05-31T00:06:15;102384.56;;;13.44;100.00
74103;BME280;62853;46.166;3.640;2023-05-31T00:08:41;102384.44;;;13.47;100.00
74103;BME280;62853;46.166;3.640;2023-05-31T00:11:07;102391.72;;;13.42;100.00
74103;BME280;62853;46.166;3.640;2023-05-31T00:13:32;102390.66;;;13.46;100.00
74103;BME280;62853;46.166;3.640;2023-05-31T00:15:58;102389.13;;;13.40;100.00
74103;BME280;62853;46.166;3.640;2023-05-31T00:18:23;102387.81;;;13.50;100.00
74103;BME280;62853;46.166;3.640;2023-05-31T00:20:49;102375.00;;;13.41;100.00
74103;BME280;62853;46.166;3.640;2023-05-31T00:23:15;102384.91;;;13.36;100.00
74103;BME280;62853;46.166;3.640;2023-05-31T00:25:40;102390.09;;;13.39;100.00
74103;BME280;62853;46.166;3.640;2023-05-31T00:28:06;102384.19;;;13.32;100.00
74103;BME280;62853;46.166;3.640;2023-05-31T00:30:31;102392.84;;;13.36;100.00
74103;BME280;62853;46.166;3.640;2023-05-31T00:32:56;102389.47;;;13.32;100.00
74103;BME280;62853;46.166;3.640;2023-05-31T00:35:22;102386.97;;;13.28;100.00
74103;BME280;62853;46.166;3.640;2023-05-31T00:37:47;102384.34;;;13.28;100.00
74103;BME280;62853;46.166;3.640;2023-05-31T00:40:12;102392.53;;;13.21;100.00
74103;BME280;62853;46.166;3.640;2023-05-31T00:42:38;102391.78;;;13.18;100.00
74103;BME280;62853;46.166;3.640;2023-05-31T00:45:05;102383.78;;;13.19;100.00
74103;BME280;62853;46.166;3.640;2023-05-31T00:47:31;102389.13;;;13.18;100.00
74103;BME280;62853;46.166;3.640;2023-05-31T00:49:57;102384.69;;;13.18;100.00
74103;BME280;62853;46.166;3.640;2023-05-31T00:52:23;102384.91;;;13.14;100.00
74103;BME280;62853;46.166;3.640;2023-05-31T00:54:50;102386.88;;;13.09;100.00
74103;BME280;62853;46.166;3.640;2023-05-31T00:57:16;102393.16;;;13.06;100.00
74103;BME280;62853;46.166;3.640;2023-05-31T00:59:41;102392.22;;;13.07;100.00
74103;BME280;62853;46.166;3.640;2023-05-31T01:02:07;102388.81;;;13.03;100.00
74103;BME280;62853;46.166;3.640;2023-05-31T01:04:33;102400.41;;;13.01;100.00
74103;BME280;62853;46.166;3.640;2023-05-31T01:06:59;102397.69;;;13.02;100.00
74103;BME280;62853;46.166;3.640;2023-05-31T01:09:27;102394.31;;;12.99;100.00
74103;BME280;62853;46.166;3.640;2023-05-31T01:19:58;102397.31;;;12.90;100.00
74103;BME280;62853;46.166;3.640;2023-05-31T01:22:54;102406.25;;;12.87;100.00
74103;BME280;62853;46.166;3.640;2023-05-31T01:25:35;102400.28;;;12.82;100.00
74103;BME280;62853;46.166;3.640;2023-05-31T01:28:05;102391.47;;;12.81;100.00
74103;BME280;62853;46.166;3.640;2023-05-31T01:30:32;102393.19;;;12.82;100.00
74103;BME280;62853;46.166;3.640;2023-05-31T01:32:59;102390.78;;;12.76;100.00
74103;BME280;62853;46.166;3.640;2023-05-31T01:35:25;102387.25;;;12.77;100.00
74103;BME280;62853;46.166;3.640;2023-05-31T01:37:51;102388.03;;;12.79;100.00
74103;BME280;62853;46.166;3.640;2023-05-31T01:40:17;102390.72;;;12.78;100.00
74103;BME280;62853;46.166;3.640;2023-05-31T01:42:43;102379.38;;;12.76;100.00
74103;BME280;62853;46.166;3.640;2023-05-31T01:45:11;102385.69;;;12.72;100.00
74103;BME280;62853;46.166;3.640;2023-05-31T01:47:39;102388.47;;;12.69;100.00
74103;BME280;62853;46.166;3.640;2023-05-31T01:50:07;102392.00;;;12.68;100.00
74103;BME280;62853;46.166;3.640;2023-05-31T01:52:34;102386.72;;;12.68;100.00
74103;BME280;62853;46.166;3.640;2023-05-31T01:55:01;102388.63;;;12.64;100.00
74103;BME280;62853;46.166;3.640;2023-05-31T01:57:27;102379.16;;;12.58;100.00
74103;BME280;62853;46.166;3.640;2023-05-31T01:59:59;102382.56;;;12.62;100.00
74103;BME280;62853;46.166;3.640;2023-05-31T02:02:27;102379.13;;;12.60;100.00
74103;BME280;62853;46.166;3.640;2023-05-31T02:05:06;102384.13;;;12.66;100.00
74103;BME280;62853;46.166;3.640;2023-05-31T02:07:37;102385.47;;;12.54;100.00
74103;BME280;62853;46.166;3.640;2023-05-31T02:10:03;102379.41;;;12.52;100.00
74103;BME280;62853;46.166;3.640;2023-05-31T02:12:28;102374.78;;;12.57;100.00
74103;BME280;62853;46.166;3.640;2023-05-31T02:14:53;102378.44;;;12.55;100.00
74103;BME280;62853;46.166;3.640;2023-05-31T02:17:19;102364.94;;;12.61;100.00
74103;BME280;62853;46.166;3.640;2023-05-31T02:19:50;102367.59;;;12.61;100.00
74103;BME280;62853;46.166;3.640;2023-05-31T02:22:15;102366.91;;;12.56;100.00
74103;BME280;62853;46.166;3.640;2023-05-31T02:24:41;102364.28;;;12.56;100.00
74103;BME280;62853;46.166;3.640;2023-05-31T02:27:06;102366.88;;;12.57;100.00
74103;BME280;62853;46.166;3.640;2023-05-31T02:29:32;102371.47;;;12.52;100.00
74103;BME280;62853;46.166;3.640;2023-05-31T02:31:57;102369.72;;;12.51;100.00
74103;BME280;62853;46.166;3.640;2023-05-31T02:34:23;102374.28;;;12.47;100.00
74103;BME280;62853;46.166;3.640;2023-05-31T02:36:48;102375.22;;;12.46;100.00
74103;BME280;62853;46.166;3.640;2023-05-31T02:39:13;102377.81;;;12.48;100.00
74103;BME280;62853;46.166;3.640;2023-05-31T02:41:39;102372.56;;;12.46;100.00
74103;BME280;62853;46.166;3.640;2023-05-31T02:44:04;102371.75;;;12.44;100.00
74103;BME280;62853;46.166;3.640;2023-05-31T02:46:29;102376.22;;;12.42;100.00
74103;BME280;62853;46.166;3.640;2023-05-31T02:48:55;102375.50;;;12.39;100.00
74103;BME280;62853;46.166;3.640;2023-05-31T02:51:21;102377.19;;;12.41;100.00
74103;BME280;62853;46.166;3.640;2023-05-31T02:53:46;102370.22;;;12.39;100.00
74103;BME280;62853;46.166;3.640;2023-05-31T02:56:11;102377.19;;;12.41;100.00
74103;BME280;62853;46.166;3.640;2023-05-31T02:58:37;102366.88;;;12.34;100.00
74103;BME280;62853;46.166;3.640;2023-05-31T03:01:02;102369.53;;;12.34;100.00
74103;BME280;62853;46.166;3.640;2023-05-31T03:03:28;102374.84;;;12.32;100.00
74103;BME280;62853;46.166;3.640;2023-05-31T03:05:53;102381.41;;;12.22;100.00
74103;BME280;62853;46.166;3.640;2023-05-31T03:08:19;102381.56;;;12.17;100.00
74103;BME280;62853;46.166;3.640;2023-05-31T03:10:45;102374.63;;;12.15;100.00
74103;BME280;62853;46.166;3.640;2023-05-31T03:13:10;102369.53;;;12.10;100.00
74103;BME280;62853;46.166;3.640;2023-05-31T03:15:35;102379.88;;;12.16;100.00
74103;BME280;62853;46.166;3.640;2023-05-31T03:18:01;102383.63;;;12.09;100.00
74103;BME280;62853;46.166;3.640;2023-05-31T03:20:26;102376.00;;;12.01;100.00
74103;BME280;62853;46.166;3.640;2023-05-31T03:22:51;102384.66;;;12.05;100.00
74103;BME280;62853;46.166;3.640;2023-05-31T03:25:17;102384.56;;;12.08;100.00
74103;BME280;62853;46.166;3.640;2023-05-31T03:27:42;102376.69;;;12.06;100.00
74103;BME280;62853;46.166;3.640;2023-05-31T03:30:08;102377.84;;;11.99;100.00
74103;BME280;62853;46.166;3.640;2023-05-31T03:32:33;102384.66;;;12.05;100.00
74103;BME280;62853;46.166;3.640;2023-05-31T03:34:59;102378.59;;;12.03;100.00
74103;BME280;62853;46.166;3.640;2023-05-31T03:37:24;102377.59;;;12.05;100.00
74103;BME280;62853;46.166;3.640;2023-05-31T03:39:50;102374.31;;;11.99;100.00
74103;BME280;62853;46.166;3.640;2023-05-31T03:42:15;102372.25;;;12.07;100.00
74103;BME280;62853;46.166;3.640;2023-05-31T03:44:41;102375.06;;;12.02;100.00
74103;BME280;62853;46.166;3.640;2023-05-31T03:47:06;102372.50;;;12.01;100.00
74103;BME280;62853;46.166;3.640;2023-05-31T03:49:32;102372.63;;;11.98;100.00
74103;BME280;62853;46.166;3.640;2023-05-31T03:51:57;102378.81;;;11.97;100.00
74103;BME280;62853;46.166;3.640;2023-05-31T03:54:22;102373.63;;;11.94;100.00
74103;BME280;62853;46.166;3.640;2023-05-31T03:56:48;102375.94;;;12.03;100.00
74103;BME280;62853;46.166;3.640;2023-05-31T03:59:13;102371.88;;;11.94;100.00
74103;BME280;62853;46.166;3.640;2023-05-31T04:01:38;102376.84;;;12.02;100.00
74103;BME280;62853;46.166;3.640;2023-05-31T04:04:04;102388.34;;;12.01;100.00
74103;BME280;62853;46.166;3.640;2023-05-31T04:06:29;102376.97;;;11.99;100.00
74103;BME280;62853;46.166;3.640;2023-05-31T04:08:55;102377.59;;;12.05;100.00
74103;BME280;62853;46.166;3.640;2023-05-31T04:11:20;102374.84;;;12.08;100.00
74103;BME280;62853;46.166;3.640;2023-05-31T04:13:45;102378.53;;;12.04;100.00
74103;BME280;62853;46.166;3.640;2023-05-31T04:16:11;102362.84;;;12.00;100.00
74103;BME280;62853;46.166;3.640;2023-05-31T04:18:36;102375.44;;;12.17;100.00
74103;BME280;62853;46.166;3.640;2023-05-31T04:21:02;102369.53;;;12.10;100.00
74103;BME280;62853;46.166;3.640;2023-05-31T04:23:27;102383.47;;;12.14;100.00
74103;BME280;62853;46.166;3.640;2023-05-31T04:25:52;102385.91;;;12.20;100.00
74103;BME280;62853;46.166;3.640;2023-05-31T04:28:18;102376.47;;;12.13;100.00
74103;BME280;62853;46.166;3.640;2023-05-31T04:30:44;102378.88;;;12.19;100.00
74103;BME280;62853;46.166;3.640;2023-05-31T04:33:11;102377.91;;;12.21;100.00
74103;BME280;62853;46.166;3.640;2023-05-31T04:35:36;102377.81;;;12.24;100.00
74103;BME280;62853;46.166;3.640;2023-05-31T04:38:02;102380.16;;;12.32;100.00
74103;BME280;62853;46.166;3.640;2023-05-31T04:40:28;102373.97;;;12.33;100.00
74103;BME280;62853;46.166;3.640;2023-05-31T04:42:58;102371.75;;;12.44;100.00
74103;BME280;62853;46.166;3.640;2023-05-31T04:45:26;102370.56;;;12.53;100.00
74103;BME280;62853;46.166;3.640;2023-05-31T04:47:52;102369.88;;;12.48;100.00
74103;BME280;62853;46.166;3.640;2023-05-31T04:50:17;102372.25;;;12.54;100.00
74103;BME280;62853;46.166;3.640;2023-05-31T04:52:44;102375.00;;;12.51;100.00
74103;BME280;62853;46.166;3.640;2023-05-31T04:55:09;102375.69;;;12.56;100.00
74103;BME280;62853;46.166;3.640;2023-05-31T04:57:35;102379.13;;;12.60;100.00
74103;BME280;62853;46.166;3.640;2023-05-31T05:00:01;102376.94;;;12.70;100.00
74103;BME280;62853;46.166;3.640;2023-05-31T05:02:26;102361.09;;;12.70;100.00
74103;BME280;62853;46.166;3.640;2023-05-31T05:04:52;102366.03;;;12.79;100.00
74103;BME280;62853;46.166;3.640;2023-05-31T05:07:17;102366.03;;;12.79;100.00
74103;BME280;62853;46.166;3.640;2023-05-31T05:09:43;102368.34;;;12.87;100.00
74103;BME280;62853;46.166;3.640;2023-05-31T05:12:09;102370.88;;;12.90;100.00
74103;BME280;62853;46.166;3.640;2023-05-31T05:14:35;102370.75;;;12.93;100.00
74103;BME280;62853;46.166;3.640;2023-05-31T05:17:00;102373.41;;;12.93;100.00
74103;BME280;62853;46.166;3.640;2023-05-31T05:19:26;102367.94;;;12.97;100.00
74103;BME280;62853;46.166;3.640;2023-05-31T05:21:51;102379.13;;;13.04;100.00
74103;BME280;62853;46.166;3.640;2023-05-31T05:24:16;102378.81;;;13.12;100.00
74103;BME280;62853;46.166;3.640;2023-05-31T05:26:43;102382.13;;;13.17;100.00
74103;BME280;62853;46.166;3.640;2023-05-31T05:29:08;102391.59;;;13.23;100.00
74103;BME280;62853;46.166;3.640;2023-05-31T05:31:34;102383.38;;;13.29;100.00
74103;BME280;62853;46.166;3.640;2023-05-31T05:33:59;102385.66;;;13.39;100.00
74103;BME280;62853;46.166;3.640;2023-05-31T05:36:25;102393.06;;;13.72;100.00
74103;BME280;62853;46.166;3.640;2023-05-31T05:38:51;102385.25;;;14.48;100.00
74103;BME280;62853;46.166;3.640;2023-05-31T05:41:16;102388.84;;;15.39;100.00
74103;BME280;62853;46.166;3.640;2023-05-31T05:43:42;102389.84;;;16.07;100.00
74103;BME280;62853;46.166;3.640;2023-05-31T05:46:08;102384.25;;;16.61;100.00
74103;BME280;62853;46.166;3.640;2023-05-31T05:48:33;102379.56;;;17.28;100.00
74103;BME280;62853;46.166;3.640;2023-05-31T05:50:59;102383.66;;;17.64;100.00
74103;BME280;62853;46.166;3.640;2023-05-31T05:53:25;102377.84;;;17.88;100.00
74103;BME280;62853;46.166;3.640;2023-05-31T05:55:51;102384.81;;;18.05;100.00
74103;BME280;62853;46.166;3.640;2023-05-31T05:58:17;102384.00;;;18.46;100.00
74103;BME280;62853;46.166;3.640;2023-05-31T06:00:44;102377.75;;;18.03;100.00
74103;BME280;62853;46.166;3.640;2023-05-31T06:03:11;102387.56;;;17.28;100.00
74103;BME280;62853;46.166;3.640;2023-05-31T06:05:36;102381.94;;;16.70;100.00
74103;BME280;62853;46.166;3.640;2023-05-31T06:08:02;102383.28;;;16.30;100.00
74103;BME280;62853;46.166;3.640;2023-05-31T06:10:27;102390.88;;;16.04;100.00
74103;BME280;62853;46.166;3.640;2023-05-31T06:12:53;102383.53;;;15.92;100.00
74103;BME280;62853;46.166;3.640;2023-05-31T06:15:18;102386.06;;;15.77;100.00
74103;BME280;62853;46.166;3.640;2023-05-31T06:17:44;102388.31;;;15.68;100.00
74103;BME280;62853;46.166;3.640;2023-05-31T06:20:09;102386.84;;;15.62;100.00
74103;BME280;62853;46.166;3.640;2023-05-31T06:22:36;102398.38;;;15.61;100.00
74103;BME280;62853;46.166;3.640;2023-05-31T06:25:01;102383.47;;;15.58;100.00
74103;BME280;62853;46.166;3.640;2023-05-31T06:27:27;102392.34;;;15.75;100.00
74103;BME280;62853;46.166;3.640;2023-05-31T06:29:53;102391.06;;;15.84;100.00
74103;BME280;62853;46.166;3.640;2023-05-31T06:32:24;102399.47;;;15.92;100.00
74103;BME280;62853;46.166;3.640;2023-05-31T06:34:50;102394.09;;;15.93;100.00
74103;BME280;62853;46.166;3.640;2023-05-31T06:37:15;102392.34;;;16.10;100.00
74103;BME280;62853;46.166;3.640;2023-05-31T06:39:41;102397.50;;;16.13;100.00
74103;BME280;62853;46.166;3.640;2023-05-31T06:42:06;102385.25;;;16.26;100.00
74103;BME280;62853;46.166;3.640;2023-05-31T06:44:32;102388.19;;;16.38;100.00
74103;BME280;62853;46.166;3.640;2023-05-31T06:46:57;102394.53;;;16.51;100.00
74103;BME280;62853;46.166;3.640;2023-05-31T06:49:23;102390.84;;;16.69;100.00
74103;BME280;62853;46.166;3.640;2023-05-31T06:51:48;102396.06;;;16.88;100.00
74103;BME280;62853;46.166;3.640;2023-05-31T06:54:14;102398.84;;;17.17;100.00
74103;BME280;62853;46.166;3.640;2023-05-31T06:56:40;102396.22;;;17.62;100.00
74103;BME280;62853;46.166;3.640;2023-05-31T06:59:05;102397.53;;;18.57;100.00
74103;BME280;62853;46.166;3.640;2023-05-31T07:01:30;102398.81;;;20.74;99.17
74103;BME280;62853;46.166;3.640;2023-05-31T07:03:56;102382.69;;;22.94;83.65
74103;BME280;62853;46.166;3.640;2023-05-31T07:06:23;102378.56;;;23.85;68.68
74103;BME280;62853;46.166;3.640;2023-05-31T07:08:49;102388.28;;;23.34;67.24
74103;BME280;62853;46.166;3.640;2023-05-31T07:11:14;102388.06;;;22.82;73.56
74103;BME280;62853;46.166;3.640;2023-05-31T07:13:40;102388.81;;;23.49;66.87
74103;BME280;62853;46.166;3.640;2023-05-31T07:16:05;102377.44;;;25.18;57.14
74103;BME280;62853;46.166;3.640;2023-05-31T07:18:31;102368.44;;;27.05;53.17
74103;BME280;62853;46.166;3.640;2023-05-31T07:20:56;102362.31;;;28.34;45.88
74103;BME280;62853;46.166;3.640;2023-05-31T07:23:22;102353.97;;;29.11;42.96
74103;BME280;62853;46.166;3.640;2023-05-31T07:25:49;102361.66;;;29.96;41.27
74103;BME280;62853;46.166;3.640;2023-05-31T07:28:14;102345.50;;;31.12;40.66
74103;BME280;62853;46.166;3.640;2023-05-31T07:30:40;102352.28;;;31.31;38.26
74103;BME280;62853;46.166;3.640;2023-05-31T07:33:05;102350.47;;;31.76;36.60
74103;BME280;62853;46.166;3.640;2023-05-31T07:35:31;102351.59;;;32.70;37.73
74103;BME280;62853;46.166;3.640;2023-05-31T07:37:56;102342.38;;;33.77;35.30
74103;BME280;62853;46.166;3.640;2023-05-31T07:40:21;102344.84;;;34.14;33.20
74103;BME280;62853;46.166;3.640;2023-05-31T07:42:47;102341.25;;;35.08;31.80
74103;BME280;62853;46.166;3.640;2023-05-31T07:45:12;102337.19;;;35.44;31.42
74103;BME280;62853;46.166;3.640;2023-05-31T07:47:38;102337.38;;;35.63;29.56
74103;BME280;62853;46.166;3.640;2023-05-31T07:50:03;102334.19;;;35.66;30.38
74103;BME280;62853;46.166;3.640;2023-05-31T07:52:29;102330.00;;;36.22;29.69
74103;BME280;62853;46.166;3.640;2023-05-31T07:54:55;102330.50;;;36.69;28.39
74103;BME280;62853;46.166;3.640;2023-05-31T07:57:20;102334.19;;;36.88;28.58
74103;BME280;62853;46.166;3.640;2023-05-31T07:59:47;102326.75;;;37.14;27.58
74103;BME280;62853;46.166;3.640;2023-05-31T08:02:13;102330.34;;;37.39;27.04
74103;BME280;62853;46.166;3.640;2023-05-31T08:04:38;102318.88;;;37.79;27.81
74103;BME280;62853;46.166;3.640;2023-05-31T08:07:04;102323.44;;;37.86;26.98
74103;BME280;62853;46.166;3.640;2023-05-31T08:09:30;102321.03;;;37.77;25.19
74103;BME280;62853;46.166;3.640;2023-05-31T08:11:56;102311.66;;;38.15;27.15
74103;BME280;62853;46.166;3.640;2023-05-31T08:14:21;102320.19;;;38.26;26.04
74103;BME280;62853;46.166;3.640;2023-05-31T08:16:47;102313.94;;;38.19;25.27
74103;BME280;62853;46.166;3.640;2023-05-31T08:19:14;102309.41;;;38.78;25.26
74103;BME280;62853;46.166;3.640;2023-05-31T08:21:39;102319.41;;;39.15;23.94
74103;BME280;62853;46.166;3.640;2023-05-31T08:24:05;102319.97;;;39.52;25.44
74103;BME280;62853;46.166;3.640;2023-05-31T08:26:33;102307.06;;;39.70;23.33
74103;BME280;62853;46.166;3.640;2023-05-31T08:28:59;102312.53;;;39.17;23.50
74103;BME280;62853;46.166;3.640;2023-05-31T08:31:24;102301.44;;;39.65;23.49
74103;BME280;62853;46.166;3.640;2023-05-31T08:33:57;102294.91;;;39.94;23.58
74103;BME280;62853;46.166;3.640;2023-05-31T08:36:23;102290.97;;;40.53;24.50
74103;BME280;62853;46.166;3.640;2023-05-31T08:38:49;102298.06;;;41.00;22.50
74103;BME280;62853;46.166;3.640;2023-05-31T08:41:15;102299.53;;;40.85;22.39
74103;BME280;62853;46.166;3.640;2023-05-31T08:43:40;102289.31;;;41.47;21.78
74103;BME280;62853;46.166;3.640;2023-05-31T08:46:07;102290.91;;;41.65;21.25
74103;BME280;62853;46.166;3.640;2023-05-31T08:51:06;102289.94;;;41.32;22.54
74103;BME280;62853;46.166;3.640;2023-05-31T08:53:34;102280.63;;;41.38;22.82
74103;BME280;62853;46.166;3.640;2023-05-31T08:56:00;102275.31;;;41.81;21.42
74103;BME280;62853;46.166;3.640;2023-05-31T08:58:29;102277.41;;;41.69;22.27
74103;BME280;62853;46.166;3.640;2023-05-31T09:00:55;102283.66;;;41.37;23.23
74103;BME280;62853;46.166;3.640;2023-05-31T09:03:22;102272.88;;;41.62;22.15
74103;BME280;62853;46.166;3.640;2023-05-31T09:05:48;102272.34;;;41.88;21.08
74103;BME280;62853;46.166;3.640;2023-05-31T09:08:13;102273.44;;;41.20;22.46
74103;BME280;62853;46.166;3.640;2023-05-31T09:10:42;102267.66;;;39.57;23.33
74103;BME280;62853;46.166;3.640;2023-05-31T09:13:07;102281.72;;;37.15;24.97
74103;BME280;62853;46.166;3.640;2023-05-31T09:15:35;102281.19;;;35.33;26.85
74103;BME280;62853;46.166;3.640;2023-05-31T09:18:28;102283.56;;;34.76;28.80
74103;BME280;62853;46.166;3.640;2023-05-31T09:21:07;102282.13;;;33.22;30.06
74103;BME280;62853;46.166;3.640;2023-05-31T09:23:33;102281.38;;;32.78;32.74
74103;BME280;62853;46.166;3.640;2023-05-31T09:25:59;102269.09;;;32.24;32.35
74103;BME280;62853;46.166;3.640;2023-05-31T09:28:25;102275.59;;;31.72;33.61
74103;BME280;62853;46.166;3.640;2023-05-31T09:31:04;102270.97;;;31.13;35.88
74103;BME280;62853;46.166;3.640;2023-05-31T09:33:37;102267.91;;;30.93;34.22
74103;BME280;62853;46.166;3.640;2023-05-31T09:36:04;102269.84;;;31.67;33.70
74103;BME280;62853;46.166;3.640;2023-05-31T09:38:33;102259.59;;;33.48;30.52
74103;BME280;62853;46.166;3.640;2023-05-31T09:41:18;102254.63;;;35.34;29.30
74103;BME280;62853;46.166;3.640;2023-05-31T09:43:45;102247.56;;;35.58;26.70
74103;BME280;62853;46.166;3.640;2023-05-31T09:46:12;102242.00;;;35.06;27.34
74103;BME280;62853;46.166;3.640;2023-05-31T09:48:38;102244.25;;;33.89;28.22
74103;BME280;62853;46.166;3.640;2023-05-31T09:51:07;102247.22;;;32.61;30.66
74103;BME280;62853;46.166;3.640;2023-05-31T09:53:44;102242.19;;;32.00;32.28
74103;BME280;62853;46.166;3.640;2023-05-31T09:56:20;102240.28;;;32.00;33.00
74103;BME280;62853;46.166;3.640;2023-05-31T09:58:48;102238.50;;;32.07;31.20
74103;BME280;62853;46.166;3.640;2023-05-31T10:01:18;102235.06;;;31.84;33.23
74103;BME280;62853;46.166;3.640;2023-05-31T10:03:43;102245.25;;;31.45;32.22
74103;BME280;62853;46.166;3.640;2023-05-31T10:06:10;102235.31;;;30.70;32.45
74103;BME280;62853;46.166;3.640;2023-05-31T10:08:37;102230.25;;;31.34;34.52
74103;BME280;62853;46.166;3.640;2023-05-31T10:11:03;102228.69;;;32.78;29.86
74103;BME280;62853;46.166;3.640;2023-05-31T10:13:29;102222.34;;;33.82;32.82
74103;BME280;62853;46.166;3.640;2023-05-31T10:15:57;102227.31;;;34.60;27.89
74103;BME280;62853;46.166;3.640;2023-05-31T10:18:28;102227.94;;;34.69;27.66
74103;BME280;62853;46.166;3.640;2023-05-31T10:21:10;102220.47;;;35.30;27.39
74103;BME280;62853;46.166;3.640;2023-05-31T10:23:43;102214.47;;;35.60;26.68
74103;BME280;62853;46.166;3.640;2023-05-31T10:26:17;102213.91;;;35.44;26.00
74103;BME280;62853;46.166;3.640;2023-05-31T10:31:36;102205.78;;;35.04;27.86
74103;BME280;62853;46.166;3.640;2023-05-31T10:34:23;102200.28;;;35.11;30.00
74103;BME280;62853;46.166;3.640;2023-05-31T10:36:53;102194.88;;;34.84;26.96
74103;BME280;62853;46.166;3.640;2023-05-31T10:39:33;102198.22;;;34.13;26.25
74103;BME280;62853;46.166;3.640;2023-05-31T10:42:18;102194.22;;;33.88;28.77
74103;BME280;62853;46.166;3.640;2023-05-31T10:45:09;102187.03;;;33.87;29.55
74103;BME280;62853;46.166;3.640;2023-05-31T10:47:40;102185.16;;;33.33;27.85
74103;BME280;62853;46.166;3.640;2023-05-31T10:50:06;102179.56;;;33.13;32.12
74103;BME280;62853;46.166;3.640;2023-05-31T10:52:32;102176.63;;;32.51;28.76
74103;BME280;62853;46.166;3.640;2023-05-31T10:55:15;102173.09;;;32.07;29.64
74103;BME280;62853;46.166;3.640;2023-05-31T10:57:40;102169.94;;;31.67;29.36
74103;BME280;62853;46.166;3.640;2023-05-31T11:00:07;102171.78;;;31.30;30.52
74103;BME280;62853;46.166;3.640;2023-05-31T11:02:33;102181.34;;;31.26;31.91
74103;BME280;62853;46.166;3.640;2023-05-31T11:05:20;102178.44;;;31.13;32.03
74103;BME280;62853;46.166;3.640;2023-05-31T11:07:47;102172.28;;;30.66;29.66
74103;BME280;62853;46.166;3.640;2023-05-31T11:10:24;102172.44;;;30.50;31.86
74103;BME280;62853;46.166;3.640;2023-05-31T11:12:50;102161.09;;;30.23;30.39
74103;BME280;62853;46.166;3.640;2023-05-31T11:15:16;102171.47;;;29.96;31.13
74103;BME280;62853;46.166;3.640;2023-05-31T11:17:51;102169.94;;;29.71;31.86
74103;BME280;62853;46.166;3.640;2023-05-31T11:20:17;102161.75;;;29.39;31.39
74103;BME280;62853;46.166;3.640;2023-05-31T11:22:43;102167.75;;;29.35;33.18
74103;BME280;62853;46.166;3.640;2023-05-31T11:25:18;102167.94;;;29.25;33.05
74103;BME280;62853;46.166;3.640;2023-05-31T11:27:45;102160.81;;;29.16;32.46
74103;BME280;62853;46.166;3.640;2023-05-31T11:30:14;102170.34;;;29.11;33.03
74103;BME280;62853;46.166;3.640;2023-05-31T11:35:09;102166.03;;;28.78;34.21
74103;BME280;62853;46.166;3.640;2023-05-31T11:37:39;102169.91;;;28.83;33.32
74103;BME280;62853;46.166;3.640;2023-05-31T11:40:08;102173.75;;;28.97;37.14
74103;BME280;62853;46.166;3.640;2023-05-31T11:42:42;102167.81;;;29.02;34.37
74103;BME280;62853;46.166;3.640;2023-05-31T11:45:11;102164.94;;;28.95;33.11
74103;BME280;62853;46.166;3.640;2023-05-31T11:50:36;102159.94;;;28.67;33.69
74103;BME280;62853;46.166;3.640;2023-05-31T11:53:02;102153.81;;;28.73;35.94
74103;BME280;62853;46.166;3.640;2023-05-31T11:55:31;102169.25;;;28.73;32.74
74103;BME280;62853;46.166;3.640;2023-05-31T11:58:00;102145.50;;;28.67;33.72
74103;BME280;62853;46.166;3.640;2023-05-31T12:00:27;102152.44;;;28.86;35.21
74103;BME280;62853;46.166;3.640;2023-05-31T12:02:55;102146.84;;;28.87;33.09
74103;BME280;62853;46.166;3.640;2023-05-31T12:05:25;102129.03;;;28.85;33.37
74103;BME280;62853;46.166;3.640;2023-05-31T12:07:55;102142.63;;;28.76;35.10
74103;BME280;62853;46.166;3.640;2023-05-31T12:10:21;102140.22;;;28.82;33.38
74103;BME280;62853;46.166;3.640;2023-05-31T12:12:49;102136.00;;;28.87;35.15
74103;BME280;62853;46.166;3.640;2023-05-31T12:15:16;102118.88;;;28.87;33.48
74103;BME280;62853;46.166;3.640;2023-05-31T12:17:42;102106.97;;;28.96;36.37
74103;BME280;62853;46.166;3.640;2023-05-31T12:20:08;102133.31;;;28.79;32.72
74103;BME280;62853;46.166;3.640;2023-05-31T12:22:34;102119.94;;;28.53;33.68
74103;BME280;62853;46.166;3.640;2023-05-31T12:25:00;102112.34;;;28.40;35.89
74103;BME280;62853;46.166;3.640;2023-05-31T12:27:27;102118.59;;;28.32;34.51
74103;BME280;62853;46.166;3.640;2023-05-31T12:29:57;102111.47;;;28.39;35.40
74103;BME280;62853;46.166;3.640;2023-05-31T12:32:23;102104.56;;;28.45;35.88
74103;BME280;62853;46.166;3.640;2023-05-31T12:35:02;102105.38;;;28.46;34.89
74103;BME280;62853;46.166;3.640;2023-05-31T12:37:33;102112.81;;;28.60;34.87
74103;BME280;62853;46.166;3.640;2023-05-31T12:40:13;102104.34;;;28.63;34.68
74103;BME280;62853;46.166;3.640;2023-05-31T12:42:39;102103.16;;;28.49;35.97
74103;BME280;62853;46.166;3.640;2023-05-31T12:45:05;102095.72;;;28.35;35.80
74103;BME280;62853;46.166;3.640;2023-05-31T12:47:32;102094.88;;;28.34;35.69
74103;BME280;62853;46.166;3.640;2023-05-31T12:50:07;102095.22;;;28.31;34.67
74103;BME280;62853;46.166;3.640;2023-05-31T12:52:37;102097.44;;;28.28;36.91
74103;BME280;62853;46.166;3.640;2023-05-31T12:55:06;102095.94;;;28.25;34.94
74103;BME280;62853;46.166;3.640;2023-05-31T12:57:33;102095.25;;;28.07;36.32
74103;BME280;62853;46.166;3.640;2023-05-31T13:00:07;102081.88;;;28.13;35.35
74103;BME280;62853;46.166;3.640;2023-05-31T13:02:35;102085.94;;;27.93;34.46
74103;BME280;62853;46.166;3.640;2023-05-31T13:05:01;102080.31;;;27.78;36.22